createdAt,value
2018-06-28T00:01:49.270Z,15.20
2018-06-28T00:04:21.504Z,15.10
2018-06-28T00:06:53.655Z,15.10
2018-06-28T00:09:26.005Z,15.10
2018-06-28T00:11:59.940Z,15.10
2018-06-28T00:14:32.739Z,15.10
2018-06-28T00:17:05.038Z,15.00
2018-06-28T00:19:37.109Z,15.10
2018-06-28T00:22:09.082Z,15.40
2018-06-28T00:24:41.447Z,15.30
2018-06-28T00:27:13.827Z,15.30
2018-06-28T00:29:45.228Z,15.20
2018-06-28T00:32:21.275Z,15.20
2018-06-28T00:34:53.028Z,15.10
2018-06-28T00:37:25.349Z,15.00
2018-06-28T00:39:57.875Z,14.90
2018-06-28T00:42:29.871Z,14.80
2018-06-28T00:45:05.952Z,14.80
2018-06-28T00:47:38.177Z,14.70
2018-06-28T00:50:09.790Z,14.60
2018-06-28T00:55:23.457Z,14.60
2018-06-28T00:57:55.460Z,14.60
2018-06-28T01:00:27.144Z,14.60
2018-06-28T01:03:03.625Z,14.60
2018-06-28T01:05:35.929Z,14.50
2018-06-28T01:08:07.786Z,14.50
2018-06-28T01:10:40.658Z,14.50
2018-06-28T01:13:12.337Z,14.40
2018-06-28T01:15:44.921Z,14.30
2018-06-28T01:18:16.717Z,14.40
2018-06-28T01:20:53.437Z,14.60
2018-06-28T01:23:24.703Z,14.60
2018-06-28T01:25:56.533Z,14.80
2018-06-28T01:28:29.120Z,14.60
2018-06-28T01:31:00.748Z,14.50
2018-06-28T01:33:32.049Z,14.30
2018-06-28T01:36:04.275Z,14.20
2018-06-28T01:38:35.862Z,14.10
2018-06-28T01:41:08.502Z,14.00
2018-06-28T01:43:46.777Z,13.90
2018-06-28T01:46:19.676Z,13.80
2018-06-28T01:48:52.526Z,13.80
2018-06-28T01:51:24.785Z,13.70
2018-06-28T01:53:56.909Z,13.70
2018-06-28T01:56:29.327Z,13.70
2018-06-28T01:59:02.568Z,13.70
2018-06-28T02:01:35.407Z,13.70
2018-06-28T02:04:06.755Z,13.60
2018-06-28T02:06:38.787Z,13.60
2018-06-28T02:09:12.038Z,13.60
2018-06-28T02:11:43.538Z,13.60
2018-06-28T02:14:15.974Z,13.60
2018-06-28T02:16:51.877Z,13.50
2018-06-28T02:19:23.555Z,13.40
2018-06-28T02:21:57.221Z,13.60
2018-06-28T02:24:29.709Z,14.00
2018-06-28T02:27:01.942Z,14.00
2018-06-28T02:29:34.198Z,14.10
2018-06-28T02:32:08.065Z,14.00
2018-06-28T02:34:39.423Z,13.80
2018-06-28T02:37:11.539Z,13.90
2018-06-28T02:39:44.550Z,13.80
2018-06-28T02:42:18.525Z,13.70
2018-06-28T02:44:51.091Z,13.60
2018-06-28T02:47:22.811Z,13.60
2018-06-28T02:49:54.739Z,13.50
2018-06-28T02:52:28.120Z,13.50
2018-06-28T02:55:00.815Z,13.50
2018-06-28T02:57:37.734Z,13.60
2018-06-28T03:00:11.506Z,13.80
2018-06-28T03:02:44.578Z,13.70
2018-06-28T03:05:16.264Z,13.70
2018-06-28T03:07:48.678Z,13.60
2018-06-28T03:10:20.304Z,13.60
2018-06-28T03:12:55.597Z,13.70
2018-06-28T03:15:28.701Z,13.80
2018-06-28T03:18:00.881Z,13.70
2018-06-28T03:20:32.223Z,13.70
2018-06-28T03:23:03.745Z,13.80
2018-06-28T03:25:36.163Z,13.80
2018-06-28T03:28:09.990Z,13.80
2018-06-28T03:30:41.979Z,14.00
2018-06-28T03:33:13.669Z,13.80
2018-06-28T03:35:55.690Z,14.00
2018-06-28T03:38:29.036Z,14.00
2018-06-28T03:41:01.040Z,14.00
2018-06-28T03:43:33.041Z,14.10
2018-06-28T03:46:04.983Z,14.20
2018-06-28T03:48:37.353Z,14.10
2018-06-28T03:51:11.094Z,14.10
2018-06-28T03:53:43.518Z,14.20
2018-06-28T03:56:15.670Z,14.30
2018-06-28T03:58:48.789Z,14.40
2018-06-28T04:01:22.510Z,14.40
2018-06-28T04:03:54.066Z,14.50
2018-06-28T04:06:30.094Z,14.60
2018-06-28T04:09:01.971Z,14.50
2018-06-28T04:11:33.632Z,14.50
2018-06-28T04:14:08.250Z,14.60
2018-06-28T04:16:41.604Z,14.60
2018-06-28T04:19:14.247Z,14.60
2018-06-28T04:21:46.628Z,14.70
2018-06-28T04:24:17.907Z,14.70
2018-06-28T04:26:49.148Z,14.80
2018-06-28T04:29:22.739Z,14.90
2018-06-28T04:31:58.554Z,15.10
2018-06-28T04:34:37.001Z,15.20
2018-06-28T04:37:11.852Z,15.10
2018-06-28T04:39:45.141Z,15.20
2018-06-28T04:42:22.319Z,15.20
2018-06-28T04:44:59.779Z,15.10
2018-06-28T04:47:37.122Z,15.20
2018-06-28T04:50:09.357Z,15.30
2018-06-28T04:52:41.417Z,15.70
2018-06-28T04:55:14.156Z,16.00
2018-06-28T04:57:46.327Z,16.20
2018-06-28T05:00:19.626Z,16.40
2018-06-28T05:02:57.596Z,16.50
2018-06-28T05:05:30.105Z,16.60
2018-06-28T05:08:01.362Z,16.60
2018-06-28T05:10:34.899Z,16.90
2018-06-28T05:13:06.797Z,17.10
2018-06-28T05:15:38.448Z,17.10
2018-06-28T05:18:09.922Z,17.20
2018-06-28T05:20:46.959Z,17.40
2018-06-28T05:23:19.447Z,17.40
2018-06-28T05:25:51.530Z,17.50
2018-06-28T05:28:23.679Z,17.40
2018-06-28T05:30:54.879Z,17.50
2018-06-28T05:33:26.891Z,17.50
2018-06-28T05:35:59.485Z,17.60
2018-06-28T05:38:31.476Z,17.60
2018-06-28T05:41:03.871Z,17.70
2018-06-28T05:43:35.476Z,18.00
2018-06-28T05:46:07.317Z,18.10
2018-06-28T05:48:38.723Z,18.10
2018-06-28T05:51:10.145Z,18.30
2018-06-28T05:53:42.396Z,18.40
2018-06-28T05:56:14.921Z,18.40
2018-06-28T05:58:46.840Z,18.40
2018-06-28T06:01:19.412Z,18.60
2018-06-28T06:03:52.192Z,18.70
2018-06-28T06:06:23.655Z,18.70
2018-06-28T06:08:57.555Z,18.80
2018-06-28T06:11:29.096Z,18.80
2018-06-28T06:14:03.137Z,18.90
2018-06-28T06:16:34.601Z,19.00
2018-06-28T06:19:07.193Z,19.10
2018-06-28T06:24:09.712Z,19.40
2018-06-28T06:26:41.889Z,19.40
2018-06-28T06:29:13.933Z,19.70
2018-06-28T06:31:46.065Z,19.80
2018-06-28T06:34:17.641Z,20.00
2018-06-28T06:36:49.782Z,20.10
2018-06-28T06:39:21.962Z,20.10
2018-06-28T06:44:25.437Z,20.30
2018-06-28T06:46:59.401Z,20.30
2018-06-28T06:49:31.814Z,20.50
2018-06-28T06:52:04.680Z,20.70
2018-06-28T06:54:40.886Z,20.80
2018-06-28T06:57:13.377Z,20.90
2018-06-28T06:59:46.324Z,20.90
2018-06-28T07:02:17.630Z,21.10
2018-06-28T07:07:45.817Z,21.20
2018-06-28T07:10:18.522Z,21.30
2018-06-28T07:12:55.940Z,21.50
2018-06-28T07:15:27.949Z,21.50
2018-06-28T07:18:01.080Z,21.60
2018-06-28T07:20:33.278Z,21.60
2018-06-28T07:23:05.420Z,21.70
2018-06-28T07:25:38.153Z,21.90
2018-06-28T07:28:10.342Z,22.00
2018-06-28T07:30:41.588Z,22.10
2018-06-28T07:33:13.243Z,22.10
2018-06-28T07:35:45.621Z,22.10
2018-06-28T07:38:16.908Z,22.20
2018-06-28T07:40:48.670Z,22.30
2018-06-28T07:43:20.240Z,22.30
2018-06-28T07:45:53.078Z,22.50
2018-06-28T07:48:25.121Z,22.60
2018-06-28T07:50:57.166Z,22.70
2018-06-28T07:53:29.793Z,22.90
2018-06-28T07:56:01.293Z,22.90
2018-06-28T07:58:32.358Z,22.90
2018-06-28T08:01:13.280Z,23.10
2018-06-28T08:03:44.869Z,23.20
2018-06-28T08:06:16.178Z,23.40
2018-06-28T08:08:48.100Z,23.40
2018-06-28T08:11:19.503Z,23.50
2018-06-28T08:13:51.185Z,23.70
2018-06-28T08:16:23.158Z,23.70
2018-06-28T08:18:55.198Z,23.80
2018-06-28T08:21:27.135Z,23.90
2018-06-28T08:24:00.273Z,24.00
2018-06-28T08:26:35.356Z,24.10
2018-06-28T08:29:06.118Z,24.20
2018-06-28T08:31:38.917Z,24.40
2018-06-28T08:34:19.650Z,24.30
2018-06-28T08:36:51.053Z,24.30
2018-06-28T08:39:22.927Z,24.30
2018-06-28T08:41:54.960Z,24.40
2018-06-28T08:47:25.723Z,24.50
2018-06-28T08:49:58.066Z,24.70
2018-06-28T08:52:29.915Z,24.80
2018-06-28T08:55:01.659Z,24.80
2018-06-28T08:57:35.350Z,24.80
2018-06-28T09:00:08.527Z,24.90
2018-06-28T09:02:40.327Z,25.00
2018-06-28T09:05:12.914Z,25.00
2018-06-28T09:07:45.476Z,25.00
2018-06-28T09:10:16.706Z,25.00
2018-06-28T09:12:48.727Z,25.10
2018-06-28T09:15:20.176Z,25.20
2018-06-28T09:17:51.769Z,25.20
2018-06-28T09:20:25.330Z,25.30
2018-06-28T09:22:57.358Z,25.30
2018-06-28T09:25:30.045Z,25.80
2018-06-28T09:28:02.175Z,26.70
2018-06-28T09:30:33.981Z,27.60
2018-06-28T09:33:04.437Z,28.60
2018-06-28T09:35:35.560Z,29.40
2018-06-28T09:38:07.661Z,29.70
2018-06-28T09:40:41.126Z,29.90
2018-06-28T09:43:12.805Z,29.90
2018-06-28T09:45:43.956Z,30.10
2018-06-28T09:48:15.792Z,30.80
2018-06-28T09:50:47.572Z,30.70
2018-06-28T09:53:18.493Z,30.20
2018-06-28T09:55:50.519Z,30.20
2018-06-28T09:58:22.471Z,30.30
2018-06-28T10:00:55.974Z,30.80
2018-06-28T10:03:26.564Z,30.50
2018-06-28T10:05:57.763Z,31.00
2018-06-28T10:08:29.666Z,31.30
2018-06-28T10:11:01.315Z,31.30
2018-06-28T10:13:33.012Z,31.80
2018-06-28T10:16:04.775Z,31.60
2018-06-28T10:18:35.646Z,31.30
2018-06-28T10:21:06.517Z,31.50
2018-06-28T10:23:38.096Z,31.80
2018-06-28T10:26:09.127Z,32.30
2018-06-28T10:28:40.347Z,32.70
2018-06-28T10:31:11.746Z,32.90
2018-06-28T10:33:42.681Z,32.40
2018-06-28T10:36:13.788Z,31.50
2018-06-28T10:38:45.302Z,31.20
2018-06-28T10:41:16.677Z,31.80
2018-06-28T10:43:48.726Z,32.70
2018-06-28T10:46:19.437Z,32.90
2018-06-28T10:48:51.033Z,33.30
2018-06-28T10:51:21.984Z,33.60
2018-06-28T10:53:53.904Z,33.30
2018-06-28T10:56:25.104Z,33.40
2018-06-28T10:58:56.029Z,33.50
2018-06-28T11:01:28.101Z,33.70
2018-06-28T11:03:59.099Z,33.60
2018-06-28T11:06:30.936Z,33.40
2018-06-28T11:09:02.919Z,33.80
2018-06-28T11:11:34.008Z,34.30
2018-06-28T11:14:05.112Z,34.70
2018-06-28T11:16:36.985Z,34.80
2018-06-28T11:19:11.868Z,34.10
2018-06-28T11:21:43.839Z,33.20
2018-06-28T11:24:15.409Z,33.20
2018-06-28T11:26:46.199Z,33.60
2018-06-28T11:29:17.132Z,33.10
2018-06-28T11:31:49.110Z,32.80
2018-06-28T11:34:19.980Z,33.70
2018-06-28T11:36:50.822Z,34.90
2018-06-28T11:39:21.997Z,35.50
2018-06-28T11:41:53.307Z,35.10
2018-06-28T11:44:24.507Z,34.20
2018-06-28T11:46:56.575Z,33.60
2018-06-28T11:49:27.124Z,33.10
2018-06-28T11:51:59.886Z,33.80
2018-06-28T11:54:31.292Z,34.50
2018-06-28T11:57:02.837Z,35.30
2018-06-28T11:59:36.344Z,35.50
2018-06-28T12:02:07.141Z,35.90
2018-06-28T12:04:39.230Z,35.90
2018-06-28T12:07:09.527Z,34.80
2018-06-28T12:09:40.545Z,34.30
2018-06-28T12:12:11.160Z,34.00
2018-06-28T12:14:42.366Z,34.20
2018-06-28T12:17:14.587Z,35.30
2018-06-28T12:19:44.771Z,36.40
2018-06-28T12:22:17.124Z,36.60
2018-06-28T12:24:48.432Z,36.30
2018-06-28T12:27:19.624Z,36.10
2018-06-28T12:29:49.318Z,36.60
2018-06-28T12:32:21.567Z,37.30
2018-06-28T12:34:51.783Z,37.60
2018-06-28T12:37:23.185Z,37.30
2018-06-28T12:39:54.309Z,37.40
2018-06-28T12:42:25.895Z,37.50
2018-06-28T12:44:56.324Z,37.70
2018-06-28T12:47:40.614Z,38.20
2018-06-28T12:50:10.786Z,38.20
2018-06-28T12:52:50.921Z,38.40
2018-06-28T12:55:22.439Z,38.60
2018-06-28T12:57:55.391Z,39.20
2018-06-28T13:00:27.045Z,40.00
2018-06-28T13:02:58.095Z,40.00
2018-06-28T13:05:30.160Z,38.60
2018-06-28T13:08:00.707Z,38.00
2018-06-28T13:10:35.487Z,37.30
2018-06-28T13:13:08.739Z,37.30
2018-06-28T13:15:39.605Z,38.20
2018-06-28T13:18:10.744Z,38.30
2018-06-28T13:20:40.642Z,38.30
2018-06-28T13:23:10.560Z,36.60
2018-06-28T13:25:41.914Z,37.70
2018-06-28T13:28:12.863Z,38.50
2018-06-28T13:30:44.277Z,39.30
2018-06-28T13:33:14.583Z,39.30
2018-06-28T13:35:45.382Z,39.30
2018-06-28T13:38:15.471Z,38.30
2018-06-28T13:40:45.621Z,38.60
2018-06-28T13:43:18.487Z,38.40
2018-06-28T13:45:48.108Z,39.20
2018-06-28T13:48:22.963Z,39.30
2018-06-28T13:50:53.177Z,39.30
2018-06-28T13:53:27.845Z,39.50
2018-06-28T13:56:03.901Z,39.10
2018-06-28T13:58:34.907Z,38.10
2018-06-28T14:01:06.619Z,38.10
2018-06-28T14:03:38.774Z,39.10
2018-06-28T14:06:09.649Z,39.60
2018-06-28T14:08:40.080Z,38.90
2018-06-28T14:11:10.452Z,38.60
2018-06-28T14:13:42.458Z,39.30
2018-06-28T14:16:13.190Z,39.40
2018-06-28T14:18:43.295Z,39.00
2018-06-28T14:21:14.169Z,38.00
2018-06-28T14:23:46.457Z,36.80
2018-06-28T14:26:17.917Z,35.90
2018-06-28T14:28:48.922Z,36.80
2018-06-28T14:31:20.284Z,37.70
2018-06-28T14:33:50.491Z,38.60
2018-06-28T14:36:23.138Z,39.70
2018-06-28T14:38:54.765Z,40.20
2018-06-28T14:41:25.705Z,39.20
2018-06-28T14:43:58.524Z,39.20
2018-06-28T14:46:28.208Z,40.20
2018-06-28T14:48:58.848Z,40.20
2018-06-28T14:51:29.139Z,40.10
2018-06-28T14:54:03.681Z,40.30
2018-06-28T14:56:35.982Z,40.20
2018-06-28T15:01:39.096Z,40.50
2018-06-28T15:04:09.840Z,38.40
2018-06-28T15:06:41.867Z,36.30
2018-06-28T15:09:13.643Z,35.80
2018-06-28T15:11:46.700Z,36.30
2018-06-28T15:14:17.972Z,37.60
2018-06-28T15:16:49.408Z,39.00
2018-06-28T15:19:21.073Z,38.70
2018-06-28T15:21:54.704Z,37.00
2018-06-28T15:24:26.420Z,35.60
2018-06-28T15:26:56.812Z,34.70
2018-06-28T15:29:28.703Z,34.20
2018-06-28T15:32:03.187Z,35.30
2018-06-28T15:34:35.647Z,36.40
2018-06-28T15:37:09.070Z,36.80
2018-06-28T15:39:39.680Z,37.90
2018-06-28T15:44:46.779Z,39.70
2018-06-28T15:47:25.501Z,38.50
2018-06-28T15:49:58.439Z,37.00
2018-06-28T15:52:29.716Z,35.10
2018-06-28T15:55:00.514Z,34.40
2018-06-28T15:57:31.315Z,35.90
2018-06-28T16:00:02.243Z,37.10
2018-06-28T16:02:34.065Z,37.90
2018-06-28T16:05:04.267Z,37.30
2018-06-28T16:07:36.391Z,37.60
2018-06-28T16:10:06.614Z,37.80
2018-06-28T16:12:38.200Z,38.00
2018-06-28T16:15:08.673Z,37.80
2018-06-28T16:17:40.160Z,37.70
2018-06-28T16:20:12.500Z,36.80
2018-06-28T16:22:45.123Z,35.10
2018-06-28T16:25:17.222Z,34.70
2018-06-28T16:27:49.736Z,35.20
2018-06-28T16:30:26.904Z,36.40
2018-06-28T16:32:58.861Z,37.10
2018-06-28T16:35:31.586Z,37.50
2018-06-28T16:38:03.202Z,37.50
2018-06-28T16:40:34.190Z,37.50
2018-06-28T16:43:05.547Z,38.00
2018-06-28T16:45:36.988Z,38.40
2018-06-28T16:48:08.848Z,38.50
2018-06-28T16:50:40.407Z,38.20
2018-06-28T16:55:42.973Z,38.20
2018-06-28T16:58:15.167Z,37.40
2018-06-28T17:00:46.749Z,36.50
2018-06-28T17:03:25.651Z,35.40
2018-06-28T17:05:57.381Z,34.30
2018-06-28T17:08:33.244Z,34.10
2018-06-28T17:11:04.771Z,34.50
2018-06-28T17:13:35.598Z,34.10
2018-06-28T17:16:07.034Z,33.50
2018-06-28T17:18:38.178Z,32.70
2018-06-28T17:21:10.448Z,31.70
2018-06-28T17:23:40.446Z,31.20
2018-06-28T17:26:11.772Z,31.70
2018-06-28T17:28:42.285Z,31.50
2018-06-28T17:31:12.816Z,30.90
2018-06-28T17:33:44.295Z,30.60
2018-06-28T17:36:24.031Z,30.10
2018-06-28T17:38:56.351Z,30.20
2018-06-28T17:41:27.236Z,31.50
2018-06-28T17:43:59.395Z,32.40
2018-06-28T17:46:30.477Z,33.10
2018-06-28T17:49:01.942Z,33.70
2018-06-28T17:51:33.006Z,34.30
2018-06-28T17:54:03.927Z,34.40
2018-06-28T17:56:34.231Z,34.30
2018-06-28T17:59:06.116Z,33.50
2018-06-28T18:01:37.043Z,33.50
2018-06-28T18:04:08.332Z,33.20
2018-06-28T18:06:39.392Z,33.50
2018-06-28T18:09:14.284Z,33.20
2018-06-28T18:12:02.112Z,32.50
2018-06-28T18:14:33.411Z,32.70
2018-06-28T18:17:20.126Z,32.90
2018-06-28T18:19:51.764Z,32.40
2018-06-28T18:22:23.437Z,31.20
2018-06-28T18:24:55.389Z,30.60
2018-06-28T18:27:26.803Z,30.20
2018-06-28T18:29:58.497Z,29.80
2018-06-28T18:32:29.484Z,29.30
2018-06-28T18:35:01.496Z,28.90
2018-06-28T18:37:32.838Z,28.60
2018-06-28T18:40:03.685Z,28.30
2018-06-28T18:42:34.491Z,28.00
2018-06-28T18:45:06.088Z,27.80
2018-06-28T18:47:36.471Z,27.60
2018-06-28T18:50:07.083Z,27.40
2018-06-28T18:52:38.009Z,27.30
2018-06-28T18:55:08.213Z,27.10
2018-06-28T18:57:39.187Z,27.00
2018-06-28T19:00:10.494Z,26.80
2018-06-28T19:02:43.183Z,26.70
2018-06-28T19:05:14.307Z,26.60
2018-06-28T19:07:46.274Z,26.40
2018-06-28T19:10:21.563Z,26.30
2018-06-28T19:12:52.878Z,26.20
2018-06-28T19:15:29.000Z,26.00
2018-06-28T19:18:01.496Z,25.90
2018-06-28T19:20:31.518Z,25.80
2018-06-28T19:23:07.105Z,25.70
2018-06-28T19:25:37.636Z,25.60
2018-06-28T19:28:07.984Z,25.50
2018-06-28T19:33:17.666Z,25.30
2018-06-28T19:35:48.821Z,25.20
2018-06-28T19:38:19.609Z,25.00
2018-06-28T19:40:56.809Z,24.90
2018-06-28T19:43:29.132Z,24.80
2018-06-28T19:46:00.640Z,24.60
2018-06-28T19:48:31.194Z,24.50
2018-06-28T19:51:17.015Z,24.50
2018-06-28T19:53:48.449Z,24.30
2018-06-28T19:56:21.926Z,24.30
2018-06-28T20:01:28.591Z,24.00
2018-06-28T20:04:04.102Z,23.80
2018-06-28T20:06:39.165Z,23.60
2018-06-28T20:09:11.039Z,23.40
2018-06-28T20:11:42.126Z,23.30
2018-06-28T20:18:13.948Z,23.10
2018-06-28T20:20:44.673Z,23.00
2018-06-28T20:23:15.764Z,22.90
2018-06-28T20:25:46.890Z,22.70
2018-06-28T20:28:26.658Z,22.70
2018-06-28T20:31:05.099Z,22.60
2018-06-28T20:33:40.714Z,22.50
2018-06-28T20:36:12.924Z,22.30
2018-06-28T20:38:44.850Z,22.30
2018-06-28T20:41:16.372Z,22.30
2018-06-28T20:43:48.021Z,22.40
2018-06-28T20:46:23.492Z,22.40
2018-06-28T20:48:55.420Z,22.30
2018-06-28T20:51:27.461Z,22.20
2018-06-28T20:54:00.098Z,22.00
2018-06-28T20:56:31.122Z,21.80
2018-06-28T20:59:02.848Z,21.90
2018-06-28T21:01:34.714Z,21.80
2018-06-28T21:04:07.136Z,21.60
2018-06-28T21:06:38.754Z,21.60
2018-06-28T21:09:11.802Z,21.40
2018-06-28T21:11:44.378Z,21.40
2018-06-28T21:14:17.036Z,21.30
2018-06-28T21:16:48.394Z,21.20
2018-06-28T21:19:20.034Z,21.10
2018-06-28T21:21:52.839Z,21.00
2018-06-28T21:24:24.230Z,21.00
2018-06-28T21:26:55.728Z,21.00
2018-06-28T21:29:27.814Z,21.10
2018-06-28T21:31:59.633Z,21.20
2018-06-28T21:34:32.120Z,21.20
2018-06-28T21:37:08.876Z,21.20
2018-06-28T21:39:41.379Z,21.20
2018-06-28T21:42:13.328Z,21.20
2018-06-28T21:44:44.998Z,21.30
2018-06-28T21:47:17.307Z,21.30
2018-06-28T21:49:52.015Z,21.30
2018-06-28T21:52:24.305Z,21.30
2018-06-28T21:54:56.252Z,21.30
2018-06-28T21:57:28.146Z,21.20
2018-06-28T21:59:59.528Z,21.20
2018-06-28T22:02:30.350Z,21.10
2018-06-28T22:05:01.405Z,21.00
2018-06-28T22:07:39.732Z,20.90
2018-06-28T22:10:11.465Z,21.00
2018-06-28T22:12:49.798Z,20.70
2018-06-28T22:15:25.323Z,20.70
2018-06-28T22:17:59.046Z,20.70
2018-06-28T22:20:31.988Z,20.70
2018-06-28T22:23:04.554Z,20.70
2018-06-28T22:25:36.271Z,20.60
2018-06-28T22:28:07.678Z,20.50
2018-06-28T22:33:13.678Z,20.20
2018-06-28T22:35:44.842Z,20.20
2018-06-28T22:38:16.411Z,20.10
2018-06-28T22:40:48.203Z,20.00
2018-06-28T22:43:20.060Z,19.80
2018-06-28T22:45:51.557Z,19.70
2018-06-28T22:48:23.757Z,19.60
2018-06-28T22:50:54.874Z,19.50
2018-06-28T22:53:26.351Z,19.50
2018-06-28T22:55:57.940Z,19.50
2018-06-28T22:58:29.279Z,19.40
2018-06-28T23:01:00.944Z,19.30
2018-06-28T23:03:32.866Z,19.40
2018-06-28T23:06:04.504Z,19.30
2018-06-28T23:08:36.131Z,19.10
2018-06-28T23:11:08.078Z,19.00
2018-06-28T23:13:39.758Z,19.00
2018-06-28T23:16:11.126Z,19.00
2018-06-28T23:18:43.186Z,18.80
2018-06-28T23:21:15.247Z,18.80
2018-06-28T23:23:47.573Z,18.90
2018-06-28T23:26:19.378Z,18.90
2018-06-28T23:28:50.849Z,18.90
2018-06-28T23:31:22.910Z,19.10
2018-06-28T23:33:54.767Z,19.10
2018-06-28T23:36:26.373Z,19.30
2018-06-28T23:38:57.927Z,19.30
2018-06-28T23:41:29.034Z,19.10
2018-06-28T23:44:01.672Z,18.90
2018-06-28T23:46:34.294Z,18.80
2018-06-28T23:49:06.715Z,18.70
2018-06-28T23:51:38.251Z,18.60
2018-06-28T23:54:10.603Z,18.50
2018-06-28T23:56:42.829Z,18.30
2018-06-28T23:59:13.977Z,18.20
